createdAt,value
2018-11-07T00:00:50.636Z,56.10
2018-11-07T00:03:20.511Z,56.72
2018-11-07T00:05:54.204Z,55.52
2018-11-07T00:08:25.425Z,55.87
2018-11-07T00:10:57.689Z,55.52
2018-11-07T00:13:27.598Z,55.48
2018-11-07T00:15:57.132Z,56.13
2018-11-07T00:18:34.360Z,56.18
2018-11-07T00:21:06.033Z,54.90
2018-11-07T00:23:37.314Z,55.23
2018-11-07T00:26:07.581Z,55.34
2018-11-07T00:28:39.259Z,54.95
2018-11-07T00:31:09.744Z,55.09
2018-11-07T00:33:41.290Z,54.38
2018-11-07T00:36:13.471Z,55.19
2018-11-07T00:38:43.163Z,54.82
2018-11-07T00:41:13.302Z,54.67
2018-11-07T00:43:45.053Z,55.13
2018-11-07T00:46:17.037Z,54.90
2018-11-07T00:48:49.431Z,55.75
2018-11-07T00:51:19.172Z,55.39
2018-11-07T00:53:51.003Z,55.39
2018-11-07T00:56:22.038Z,55.61
2018-11-07T00:58:53.146Z,55.82
2018-11-07T01:01:22.560Z,56.92
2018-11-07T01:03:52.390Z,56.99
2018-11-07T01:06:23.831Z,56.91
2018-11-07T01:08:54.010Z,56.70
2018-11-07T01:11:33.284Z,57.46
2018-11-07T01:14:04.593Z,57.60
2018-11-07T01:16:34.847Z,56.74
2018-11-07T01:19:05.904Z,56.54
2018-11-07T01:21:38.448Z,55.71
2018-11-07T01:24:08.603Z,55.65
2018-11-07T01:26:38.846Z,54.25
2018-11-07T01:29:08.340Z,54.38
2018-11-07T01:31:38.756Z,54.64
2018-11-07T01:34:08.181Z,54.48
2018-11-07T01:36:37.977Z,55.85
2018-11-07T01:39:09.347Z,55.45
2018-11-07T01:41:39.094Z,55.36
2018-11-07T01:44:09.867Z,55.22
2018-11-07T01:46:40.829Z,55.08
2018-11-07T01:49:10.338Z,54.11
2018-11-07T01:51:40.657Z,54.09
2018-11-07T01:54:10.085Z,53.86
2018-11-07T01:56:39.521Z,53.57
2018-11-07T01:59:09.424Z,54.48
2018-11-07T02:01:39.489Z,54.11
2018-11-07T02:04:08.953Z,55.43
2018-11-07T02:06:38.931Z,55.96
2018-11-07T02:09:10.263Z,55.74
2018-11-07T02:11:40.477Z,55.93
2018-11-07T02:14:14.469Z,55.54
2018-11-07T02:16:43.970Z,55.05
2018-11-07T02:19:13.448Z,55.33
2018-11-07T02:22:54.428Z,55.05
2018-11-07T02:25:26.192Z,54.75
2018-11-07T02:27:56.107Z,54.29
2018-11-07T02:30:25.547Z,54.45
2018-11-07T02:32:55.899Z,54.18
2018-11-07T02:35:25.413Z,53.76
2018-11-07T02:37:55.581Z,54.07
2018-11-07T02:40:26.921Z,54.23
2018-11-07T02:43:05.368Z,53.81
2018-11-07T02:45:35.476Z,53.51
2018-11-07T02:48:05.815Z,53.34
2018-11-07T02:50:38.070Z,53.48
2018-11-07T02:53:08.484Z,53.66
2018-11-07T02:55:40.098Z,53.10
2018-11-07T02:58:11.113Z,52.87
2018-11-07T03:03:18.703Z,52.21
2018-11-07T03:05:48.254Z,52.82
2018-11-07T03:08:18.910Z,52.31
2018-11-07T03:10:48.355Z,51.51
2018-11-07T03:13:18.694Z,52.04
2018-11-07T03:15:49.183Z,53.03
2018-11-07T03:18:18.638Z,53.81
2018-11-07T03:20:48.156Z,52.78
2018-11-07T03:23:18.790Z,53.16
2018-11-07T03:25:48.208Z,53.70
2018-11-07T03:28:18.217Z,53.67
2018-11-07T03:30:50.049Z,52.81
2018-11-07T03:33:19.611Z,52.41
2018-11-07T03:35:49.136Z,52.63
2018-11-07T03:38:19.975Z,53.04
2018-11-07T03:40:51.457Z,53.08
2018-11-07T03:43:20.844Z,52.52
2018-11-07T03:45:55.797Z,52.96
2018-11-07T03:48:25.248Z,53.39
2018-11-07T03:50:54.677Z,53.29
2018-11-07T03:53:24.453Z,53.30
2018-11-07T03:55:54.739Z,53.95
2018-11-07T03:58:27.238Z,53.72
2018-11-07T04:00:57.973Z,53.48
2018-11-07T04:03:28.799Z,54.35
2018-11-07T04:05:58.652Z,53.97
2018-11-07T04:08:31.896Z,54.36
2018-11-07T04:11:01.331Z,53.41
2018-11-07T04:13:31.293Z,53.67
2018-11-07T04:16:00.836Z,53.55
2018-11-07T04:18:30.344Z,54.06
2018-11-07T04:21:00.269Z,53.74
2018-11-07T04:23:29.691Z,54.17
2018-11-07T04:25:59.081Z,53.78
2018-11-07T04:28:28.551Z,53.16
2018-11-07T04:30:58.111Z,52.85
2018-11-07T04:33:27.491Z,53.59
2018-11-07T04:35:57.436Z,52.92
2018-11-07T04:38:28.109Z,53.16
2018-11-07T04:40:58.364Z,52.58
2018-11-07T04:43:28.420Z,52.71
2018-11-07T04:45:57.795Z,51.76
2018-11-07T04:48:27.176Z,51.78
2018-11-07T04:50:57.093Z,52.19
2018-11-07T04:53:26.574Z,53.14
2018-11-07T04:55:56.684Z,53.59
2018-11-07T04:58:26.101Z,53.69
2018-11-07T05:00:55.603Z,54.81
2018-11-07T05:03:25.075Z,54.33
2018-11-07T05:05:55.650Z,54.44
2018-11-07T05:08:25.881Z,55.15
2018-11-07T05:10:55.532Z,55.31
2018-11-07T05:13:25.698Z,54.70
2018-11-07T05:15:55.470Z,55.53
2018-11-07T05:18:24.880Z,56.09
2018-11-07T05:20:55.476Z,55.74
2018-11-07T05:23:25.189Z,55.29
2018-11-07T05:25:57.972Z,55.85
2018-11-07T05:28:27.439Z,55.27
2018-11-07T05:30:58.192Z,55.60
2018-11-07T05:33:27.726Z,56.17
2018-11-07T05:35:57.968Z,55.78
2018-11-07T05:38:29.524Z,56.26
2018-11-07T05:41:00.378Z,55.45
2018-11-07T05:43:30.600Z,55.35
2018-11-07T05:46:00.308Z,55.11
2018-11-07T05:48:29.715Z,55.95
2018-11-07T05:50:59.167Z,54.64
2018-11-07T05:53:29.432Z,54.52
2018-11-07T05:55:58.887Z,55.30
2018-11-07T05:58:29.876Z,54.78
2018-11-07T06:01:00.285Z,54.16
2018-11-07T06:03:29.944Z,53.96
2018-11-07T06:05:59.455Z,54.00
2018-11-07T06:08:29.883Z,54.19
2018-11-07T06:10:59.459Z,53.78
2018-11-07T06:13:28.896Z,54.01
2018-11-07T06:15:58.357Z,52.92
2018-11-07T06:18:27.898Z,53.35
2018-11-07T06:20:57.612Z,53.56
2018-11-07T06:23:27.074Z,54.18
2018-11-07T06:25:56.757Z,54.05
2018-11-07T06:28:26.632Z,53.57
2018-11-07T06:30:56.016Z,54.39
2018-11-07T06:33:26.462Z,53.74
2018-11-07T06:35:56.772Z,53.81
2018-11-07T06:38:26.816Z,53.30
2018-11-07T06:40:56.461Z,53.00
2018-11-07T06:43:28.539Z,53.06
2018-11-07T06:45:57.935Z,53.43
2018-11-07T06:48:27.830Z,54.48
2018-11-07T06:50:57.250Z,54.62
2018-11-07T06:53:27.090Z,54.11
2018-11-07T06:55:56.575Z,53.86
2018-11-07T06:58:25.945Z,54.51
2018-11-07T07:00:55.475Z,53.93
2018-11-07T07:03:27.898Z,54.18
2018-11-07T07:06:03.520Z,53.89
2018-11-07T07:08:34.250Z,53.95
2018-11-07T07:11:03.740Z,53.89
2018-11-07T07:13:36.336Z,53.47
2018-11-07T07:16:09.018Z,53.07
2018-11-07T07:18:38.501Z,52.99
2018-11-07T07:21:08.368Z,53.62
2018-11-07T07:23:37.749Z,53.55
2018-11-07T07:26:07.146Z,53.09
2018-11-07T07:28:38.240Z,53.17
2018-11-07T07:31:09.260Z,53.85
2018-11-07T07:33:41.927Z,54.30
2018-11-07T07:36:15.693Z,54.03
2018-11-07T07:38:45.260Z,53.63
2018-11-07T07:41:14.702Z,53.71
2018-11-07T07:43:44.975Z,53.30
2018-11-07T07:46:14.361Z,52.92
2018-11-07T07:48:44.835Z,52.56
2018-11-07T07:51:18.405Z,51.89
2018-11-07T07:53:47.915Z,51.83
2018-11-07T07:56:17.523Z,51.34
2018-11-07T07:58:48.841Z,51.13
2018-11-07T08:01:18.237Z,51.57
2018-11-07T08:03:48.509Z,50.76
2018-11-07T08:06:21.277Z,50.01
2018-11-07T08:08:53.443Z,49.91
2018-11-07T08:11:25.376Z,50.25
2018-11-07T08:13:55.539Z,49.80
2018-11-07T08:16:25.655Z,49.23
2018-11-07T08:18:55.125Z,49.00
2018-11-07T08:21:25.249Z,49.39
2018-11-07T08:23:55.646Z,49.20
2018-11-07T08:26:25.805Z,48.92
2018-11-07T08:28:58.226Z,48.31
2018-11-07T08:31:30.692Z,46.81
2018-11-07T08:34:03.324Z,46.92
2018-11-07T08:36:33.204Z,46.17
2018-11-07T08:39:04.566Z,46.81
2018-11-07T08:41:34.851Z,46.39
2018-11-07T08:44:05.593Z,47.12
2018-11-07T08:46:37.048Z,46.68
2018-11-07T08:49:07.819Z,46.51
2018-11-07T08:51:42.537Z,47.20
2018-11-07T08:54:21.809Z,47.30
2018-11-07T08:56:53.911Z,47.03
2018-11-07T08:59:24.619Z,46.99
2018-11-07T09:01:54.773Z,46.68
2018-11-07T09:04:24.840Z,46.59
2018-11-07T09:06:55.345Z,47.18
2018-11-07T09:09:25.760Z,46.54
2018-11-07T09:11:56.309Z,45.65
2018-11-07T09:14:26.888Z,45.82
2018-11-07T09:16:57.154Z,45.74
2018-11-07T09:19:27.356Z,46.04
2018-11-07T09:21:57.695Z,46.45
2018-11-07T09:24:28.254Z,46.45
2018-11-07T09:27:00.396Z,45.95
2018-11-07T09:29:29.842Z,45.53
2018-11-07T09:32:04.282Z,45.59
2018-11-07T09:34:34.393Z,44.51
2018-11-07T09:37:05.478Z,45.27
2018-11-07T09:39:38.252Z,43.78
2018-11-07T09:42:10.819Z,45.00
2018-11-07T09:44:43.197Z,44.92
2018-11-07T09:47:13.816Z,43.98
2018-11-07T09:49:43.468Z,43.82
2018-11-07T09:52:14.431Z,42.72
2018-11-07T09:54:43.904Z,43.50
2018-11-07T09:57:17.408Z,42.68
2018-11-07T09:59:49.282Z,42.22
2018-11-07T10:02:21.804Z,42.74
2018-11-07T10:04:52.656Z,42.43
2018-11-07T10:07:22.244Z,41.16
2018-11-07T10:09:52.468Z,40.49
2018-11-07T10:12:21.953Z,40.47
2018-11-07T10:14:53.101Z,41.12
2018-11-07T10:17:26.790Z,40.31
2018-11-07T10:19:56.225Z,40.35
2018-11-07T10:22:27.019Z,39.53
2018-11-07T10:27:20.813Z,38.72
2018-11-07T10:29:50.752Z,37.66
2018-11-07T10:32:24.064Z,37.30
2018-11-07T10:34:54.848Z,36.73
2018-11-07T10:37:32.368Z,35.89
2018-11-07T10:39:57.906Z,35.76
2018-11-07T10:42:28.137Z,35.39
2018-11-07T10:44:57.561Z,35.68
2018-11-07T10:47:26.987Z,36.14
2018-11-07T10:49:59.583Z,34.94
2018-11-07T10:52:29.781Z,36.09
2018-11-07T10:54:59.298Z,35.71
2018-11-07T10:57:31.601Z,35.10
2018-11-07T11:00:01.786Z,34.09
2018-11-07T11:02:36.247Z,33.35
2018-11-07T11:05:08.550Z,32.97
2018-11-07T11:07:40.472Z,32.58
2018-11-07T11:10:13.416Z,32.77
2018-11-07T11:12:44.361Z,32.84
2018-11-07T11:15:16.939Z,32.33
2018-11-07T11:17:49.718Z,31.64
2018-11-07T11:20:19.081Z,31.13
2018-11-07T11:22:49.328Z,31.20
2018-11-07T11:25:22.855Z,31.92
2018-11-07T11:27:54.481Z,31.51
2018-11-07T11:30:25.021Z,30.85
2018-11-07T11:32:55.248Z,31.38
2018-11-07T11:35:24.707Z,31.69
2018-11-07T11:37:59.235Z,29.60
2018-11-07T11:40:34.329Z,30.29
2018-11-07T11:43:05.188Z,30.20
2018-11-07T11:45:37.665Z,30.54
2018-11-07T11:48:12.558Z,30.68
2018-11-07T11:50:43.304Z,30.14
2018-11-07T11:53:24.281Z,30.50
2018-11-07T11:55:55.364Z,29.60
2018-11-07T11:58:24.753Z,29.96
2018-11-07T12:00:54.437Z,29.31
2018-11-07T12:03:25.451Z,29.10
2018-11-07T12:05:55.711Z,29.22
2018-11-07T12:08:25.907Z,29.70
2018-11-07T12:10:56.665Z,29.79
2018-11-07T12:13:27.795Z,29.24
2018-11-07T12:16:00.818Z,28.75
2018-11-07T12:18:32.414Z,28.31
2018-11-07T12:21:06.872Z,28.75
2018-11-07T12:23:39.406Z,28.68
2018-11-07T12:26:10.365Z,27.71
2018-11-07T12:28:42.779Z,27.75
2018-11-07T12:31:14.143Z,28.06
2018-11-07T12:33:45.114Z,28.26
2018-11-07T12:36:19.328Z,28.58
2018-11-07T12:38:49.915Z,28.75
2018-11-07T12:41:19.452Z,27.62
2018-11-07T12:43:50.504Z,28.01
2018-11-07T12:46:27.545Z,28.83
2018-11-07T12:49:00.643Z,29.16
2018-11-07T12:51:30.706Z,29.48
2018-11-07T12:54:01.080Z,29.55
2018-11-07T12:56:30.788Z,29.71
2018-11-07T12:59:01.399Z,29.30
2018-11-07T13:01:34.830Z,28.40
2018-11-07T13:04:04.763Z,28.47
2018-11-07T13:06:39.460Z,28.72
2018-11-07T13:09:10.638Z,29.67
2018-11-07T13:11:41.547Z,29.01
2018-11-07T13:16:39.629Z,29.09
2018-11-07T13:19:09.782Z,28.74
2018-11-07T13:21:39.208Z,29.04
2018-11-07T13:24:09.604Z,28.00
2018-11-07T13:26:40.100Z,28.24
2018-11-07T13:29:10.630Z,29.18
2018-11-07T13:31:42.134Z,29.10
2018-11-07T13:34:14.022Z,29.21
2018-11-07T13:36:46.275Z,29.05
2018-11-07T13:39:16.185Z,28.64
2018-11-07T13:41:48.660Z,28.87
2018-11-07T13:44:30.178Z,28.84
2018-11-07T13:47:00.785Z,29.06
2018-11-07T13:49:31.917Z,28.57
2018-11-07T13:52:02.377Z,28.94
2018-11-07T13:54:35.781Z,29.26
2018-11-07T13:57:08.399Z,29.00
2018-11-07T13:59:38.900Z,28.75
2018-11-07T14:02:11.184Z,29.43
2018-11-07T14:04:43.368Z,29.10
2018-11-07T14:07:14.556Z,28.84
2018-11-07T14:09:46.382Z,29.04
2018-11-07T14:12:19.412Z,29.42
2018-11-07T14:14:49.712Z,29.26
2018-11-07T14:17:20.007Z,28.95
2018-11-07T14:19:51.824Z,29.72
2018-11-07T14:22:22.352Z,29.61
2018-11-07T14:24:52.572Z,30.01
2018-11-07T14:27:27.811Z,29.49
2018-11-07T14:30:01.300Z,30.01
2018-11-07T14:32:36.515Z,30.09
2018-11-07T14:35:08.799Z,30.17
2018-11-07T14:37:44.919Z,31.15
2018-11-07T14:40:15.532Z,30.84
2018-11-07T14:42:50.275Z,31.87
2018-11-07T14:45:23.215Z,31.89
2018-11-07T14:47:56.958Z,32.00
2018-11-07T14:50:30.468Z,32.06
2018-11-07T14:53:04.531Z,32.48
2018-11-07T14:55:35.753Z,32.62
2018-11-07T14:58:08.255Z,33.08
2018-11-07T15:00:43.309Z,33.31
2018-11-07T15:03:13.354Z,33.12
2018-11-07T15:05:52.338Z,33.06
2018-11-07T15:08:25.778Z,33.68
2018-11-07T15:11:18.995Z,33.45
2018-11-07T15:13:53.525Z,33.21
2018-11-07T15:16:27.540Z,34.03
2018-11-07T15:19:02.329Z,33.67
2018-11-07T15:21:33.952Z,33.55
2018-11-07T15:24:05.874Z,34.09
2018-11-07T15:26:36.195Z,33.14
2018-11-07T15:29:06.556Z,33.40
2018-11-07T15:31:37.535Z,33.48
2018-11-07T15:34:10.595Z,34.04
2018-11-07T15:36:45.311Z,34.22
2018-11-07T15:39:15.817Z,34.93
2018-11-07T15:41:53.997Z,34.70
2018-11-07T15:44:25.110Z,34.81
2018-11-07T15:46:55.520Z,34.39
2018-11-07T15:49:28.010Z,35.39
2018-11-07T15:52:02.428Z,34.56
2018-11-07T15:54:37.874Z,34.76
2018-11-07T15:57:07.491Z,34.81
2018-11-07T15:59:37.726Z,35.54
2018-11-07T16:02:10.456Z,35.56
2018-11-07T16:04:42.008Z,36.30
2018-11-07T16:07:12.295Z,36.17
2018-11-07T16:09:43.510Z,37.49
2018-11-07T16:12:15.929Z,37.34
2018-11-07T16:14:46.679Z,37.58
2018-11-07T16:17:17.100Z,38.18
2018-11-07T16:19:49.110Z,38.47
2018-11-07T16:22:19.221Z,38.17
2018-11-07T16:24:48.633Z,38.36
2018-11-07T16:27:17.998Z,38.34
2018-11-07T16:29:51.643Z,38.35
2018-11-07T16:32:26.119Z,39.23
2018-11-07T16:34:58.455Z,39.71
2018-11-07T16:37:29.642Z,39.90
2018-11-07T16:39:59.092Z,40.63
2018-11-07T16:42:29.475Z,41.24
2018-11-07T16:45:01.165Z,40.85
2018-11-07T16:47:32.530Z,40.97
2018-11-07T16:50:07.419Z,40.54
2018-11-07T16:52:53.959Z,40.22
2018-11-07T16:55:26.720Z,40.47
2018-11-07T16:57:58.001Z,40.36
2018-11-07T17:00:30.356Z,40.71
2018-11-07T17:03:02.665Z,41.15
2018-11-07T17:05:32.020Z,40.90
2018-11-07T17:08:01.653Z,41.36
2018-11-07T17:10:31.009Z,41.16
2018-11-07T17:13:02.384Z,41.05
2018-11-07T17:15:34.707Z,40.74
2018-11-07T17:18:04.733Z,40.96
2018-11-07T17:20:35.897Z,40.07
2018-11-07T17:23:06.139Z,40.66
2018-11-07T17:25:35.517Z,40.57
2018-11-07T17:28:05.428Z,40.59
2018-11-07T17:30:35.785Z,41.04
2018-11-07T17:33:05.393Z,40.60
2018-11-07T17:35:34.784Z,40.97
2018-11-07T17:38:04.348Z,40.69
2018-11-07T17:40:35.570Z,39.01
2018-11-07T17:43:06.789Z,39.85
2018-11-07T17:45:36.215Z,39.24
2018-11-07T17:48:08.064Z,39.45
2018-11-07T17:50:37.608Z,37.97
2018-11-07T17:53:13.696Z,39.37
2018-11-07T17:55:45.733Z,39.76
2018-11-07T17:58:16.690Z,39.60
2018-11-07T18:00:49.578Z,39.07
2018-11-07T18:03:19.544Z,39.42
2018-11-07T18:05:49.917Z,40.02
2018-11-07T18:08:20.795Z,39.01
2018-11-07T18:10:52.350Z,39.35
2018-11-07T18:13:24.955Z,40.50
2018-11-07T18:15:55.747Z,40.45
2018-11-07T18:18:25.680Z,41.83
2018-11-07T18:20:59.738Z,41.87
2018-11-07T18:23:31.599Z,42.50
2018-11-07T18:26:02.388Z,42.79
2018-11-07T18:28:35.381Z,43.05
2018-11-07T18:31:08.730Z,43.25
2018-11-07T18:33:40.491Z,43.07
2018-11-07T18:36:12.666Z,42.94
2018-11-07T18:38:42.812Z,43.16
2018-11-07T18:41:12.501Z,43.23
2018-11-07T18:43:43.751Z,43.28
2018-11-07T18:46:15.243Z,42.83
2018-11-07T18:48:45.154Z,42.62
2018-11-07T18:51:15.744Z,43.70
2018-11-07T18:53:49.768Z,43.37
2018-11-07T18:56:19.887Z,44.28
2018-11-07T18:58:50.556Z,44.83
2018-11-07T19:01:22.460Z,44.92
2018-11-07T19:04:02.378Z,45.34
2018-11-07T19:06:32.050Z,46.54
2018-11-07T19:09:02.536Z,47.04
2018-11-07T19:11:32.844Z,46.15
2018-11-07T19:16:56.854Z,46.58
2018-11-07T19:19:32.197Z,47.27
2018-11-07T19:22:09.639Z,47.39
2018-11-07T19:27:43.280Z,48.16
2018-11-07T19:30:47.479Z,48.19
2018-11-07T19:33:18.781Z,48.41
2018-11-07T19:35:53.947Z,48.69
2018-11-07T19:38:34.517Z,48.66
2018-11-07T19:41:08.917Z,48.38
2018-11-07T19:43:51.127Z,48.50
2018-11-07T19:46:29.786Z,48.66
2018-11-07T19:49:21.614Z,48.30
2018-11-07T19:51:56.329Z,48.71
2018-11-07T19:54:27.861Z,48.52
2018-11-07T19:57:00.204Z,48.60
2018-11-07T19:59:31.516Z,48.53
2018-11-07T20:02:02.903Z,48.31
2018-11-07T20:04:34.566Z,48.23
2018-11-07T20:07:07.645Z,47.59
2018-11-07T20:09:39.057Z,47.72
2018-11-07T20:12:11.830Z,48.36
2018-11-07T20:14:43.906Z,47.80
2018-11-07T20:17:15.962Z,48.67
2018-11-07T20:19:48.721Z,48.27
2018-11-07T20:22:24.384Z,48.76
2018-11-07T20:24:56.500Z,48.65
2018-11-07T20:27:34.009Z,49.59
2018-11-07T20:30:06.293Z,49.31
2018-11-07T20:32:37.491Z,49.97
2018-11-07T20:35:10.002Z,48.97
2018-11-07T20:37:43.040Z,48.94
2018-11-07T20:40:16.533Z,48.51
2018-11-07T20:42:51.297Z,49.16
2018-11-07T20:45:27.213Z,49.20
2018-11-07T20:47:59.622Z,49.58
2018-11-07T20:50:32.986Z,50.26
2018-11-07T20:53:05.974Z,49.69
2018-11-07T20:55:36.676Z,50.08
2018-11-07T20:58:10.929Z,51.03
2018-11-07T21:00:42.367Z,51.84
2018-11-07T21:03:12.535Z,50.78
2018-11-07T21:05:54.017Z,50.90
2018-11-07T21:08:23.728Z,50.91
2018-11-07T21:10:55.669Z,51.78
2018-11-07T21:13:28.369Z,51.61
2018-11-07T21:15:58.131Z,51.98
2018-11-07T21:18:27.920Z,50.60
2018-11-07T21:20:58.647Z,50.54
2018-11-07T21:23:30.616Z,51.47
2018-11-07T21:26:02.062Z,51.46
2018-11-07T21:28:36.188Z,51.98
2018-11-07T21:31:05.879Z,52.51
2018-11-07T21:33:39.468Z,52.81
2018-11-07T21:36:10.886Z,52.34
2018-11-07T21:38:44.363Z,50.98
2018-11-07T21:41:15.460Z,52.03
2018-11-07T21:43:45.812Z,53.05
2018-11-07T21:46:30.358Z,52.43
2018-11-07T21:49:01.454Z,52.77
2018-11-07T21:51:32.362Z,52.99
2018-11-07T21:54:02.569Z,52.60
2018-11-07T21:56:34.839Z,52.79
2018-11-07T21:59:07.332Z,51.84
2018-11-07T22:01:37.186Z,51.20
2018-11-07T22:04:09.308Z,51.44
2018-11-07T22:06:40.398Z,51.92
2018-11-07T22:09:11.460Z,51.90
2018-11-07T22:11:43.235Z,51.15
2018-11-07T22:14:13.879Z,51.21
2018-11-07T22:16:49.104Z,51.38
2018-11-07T22:19:19.801Z,52.02
2018-11-07T22:21:50.077Z,52.13
2018-11-07T22:24:21.084Z,52.47
2018-11-07T22:26:53.380Z,52.65
2018-11-07T22:29:23.418Z,51.67
2018-11-07T22:31:55.239Z,51.09
2018-11-07T22:34:25.588Z,50.53
2018-11-07T22:37:03.277Z,51.28
2018-11-07T22:39:34.542Z,50.85
2018-11-07T22:42:06.535Z,49.73
2018-11-07T22:44:36.047Z,49.57
2018-11-07T22:47:07.581Z,50.28
2018-11-07T22:49:37.769Z,50.28
2018-11-07T22:52:08.773Z,50.40
2018-11-07T22:54:39.828Z,50.08
2018-11-07T22:57:10.923Z,50.21
2018-11-07T22:59:41.580Z,50.62
2018-11-07T23:02:13.192Z,50.71
2018-11-07T23:04:42.977Z,50.23
2018-11-07T23:07:14.442Z,50.96
2018-11-07T23:09:45.184Z,50.43
2018-11-07T23:12:15.205Z,51.62
2018-11-07T23:14:47.474Z,51.30
2018-11-07T23:17:21.242Z,51.50
2018-11-07T23:19:51.467Z,51.77
2018-11-07T23:22:22.713Z,51.58
2018-11-07T23:24:52.616Z,51.78
2018-11-07T23:27:22.581Z,51.98
2018-11-07T23:29:58.221Z,52.07
2018-11-07T23:32:30.153Z,51.71
2018-11-07T23:35:00.807Z,52.39
2018-11-07T23:37:31.922Z,52.07
2018-11-07T23:40:01.319Z,52.76
2018-11-07T23:42:32.285Z,52.72
2018-11-07T23:45:02.667Z,52.22
2018-11-07T23:47:32.190Z,52.02
2018-11-07T23:50:02.292Z,51.86
2018-11-07T23:52:51.560Z,51.83
2018-11-07T23:55:22.076Z,51.39
2018-11-07T23:57:54.966Z,50.24
